Madawaska, Maine
Current Conditions -  °F | °C
As of 4:53 PM on Thursday 27 Nov 2014 (Local Time) from KFVE Reporting Station
Overcast Overcast  
Wind Chill:   Ceiling: 11000
Heat Index: 18°   Visibility: 10mi
Dew Point: 12°   Wind: 10mph
Humidity: 78%   Direction: 330°NNW
Pressure: 29.94"   Gusts: NA
Location:  47.36°N, 68.32°W
Report Text: KFVE 272153Z AUTO 33009KT 10SM FEW027 OVC110 M08/M11 A2994 RMK AO2 SLP153 T10781111
Loading
Personal Weather Stations






























Interactive Weather Map New forecast layout! Learn more

10-Day Weather Forecast

Advertisements
Track Severe Weather on mobile